Homeworth, Ohio
Current Conditions -  °F | °C
As of 3:51 PM on Thursday 23 Oct 2014 (Local Time) from KCAK Reporting Station
Scattered Clouds Scattered Clouds  
Wind Chill: 59°   Ceiling: Unl
Heat Index: 59°   Visibility: 10mi
Dew Point: 44°   Wind: 12mph
Humidity: 58%   Direction: 340°NNW
Pressure: 30.12"   Gusts: NA
Location:  40.84°N, 81.07°W
Report Text: KCAK 231951Z 34010KT 10SM SCT030 15/07 A3012 RMK AO2 SLP202 T01500067
Loading
Personal Weather Stations






























Interactive Weather Map New forecast layout! Learn more

10-Day Weather Forecast

Advertisements
Track Severe Weather on mobile